Heinz Schepers — V2OM7 — position and weather

sailwx.info

Track history (hours):
 
Tides and Currents Weather Stations Pressure Air Temp Water Temp Dewpoint Dewpoint Depression Visibility Wind Speed Wind Dir Waves Ship Positions

Heinz Schepers

Last reported at 2017-Feb-12 16:33 UTC. Time now 2017-Feb-19 16:56 UTC.
Position N 38°50' E 009°20'.

Length 101 m; draft 6.8 m.

Type: Cargo ship. MMSI: 304596000.

Date/timePositionNaut miles runAvg speedWind from/ knotsBaromVisibWave heightAir tempDewpointWater temp
2017-Feb-12 16:33N 38°50' E 009°20'9 8.9
2017-Feb-12 15:33N 38°57' E 009°14'9 8.9
2017-Feb-12 14:33N 39°05' E 009°09'8 8.4
2017-Feb-12 13:33N 39°13' E 009°04'1 0.5
2017-Feb-12 12:31N 39°13' E 009°04'0 0.0
2017-Feb-12 11:31N 39°13' E 009°04'0 0.0
2017-Feb-12 10:28N 39°13' E 009°04'0 0.0
2017-Feb-12 09:31N 39°13' E 009°04'0 0.0
2017-Feb-12 08:31N 39°13' E 009°04'0 0.0
2017-Feb-12 07:31N 39°13' E 009°04'0 0.0
2017-Feb-12 06:31N 39°13' E 009°04'0 0.0
2017-Feb-12 05:31N 39°13' E 009°04'0 0.0
2017-Feb-12 04:31N 39°13' E 009°04'0 0.0
2017-Feb-12 03:31N 39°13' E 009°04'0 0.0
2017-Feb-12 02:31N 39°13' E 009°04'0 0.0
2017-Feb-12 01:31N 39°13' E 009°04'0 0.0
2017-Feb-12 00:31N 39°13' E 009°04'0 0.0
2017-Feb-11 23:31N 39°13' E 009°04'0 0.0
2017-Feb-11 22:31N 39°13' E 009°04'0 0.0
2017-Feb-11 21:31N 39°13' E 009°04'0 0.0
2017-Feb-11 20:31N 39°13' E 009°04'0 0.0
2017-Feb-11 19:31N 39°13' E 009°04'0 0.0
2017-Feb-11 18:31N 39°13' E 009°04'0 0.0
2017-Feb-11 17:31N 39°13' E 009°04'0 0.0
2017-Feb-11 16:31N 39°13' E 009°04'0 0.0
2017-Feb-11 15:31N 39°13' E 009°04'0 0.0
2017-Feb-11 14:31N 39°13' E 009°04'4 3.7
2017-Feb-11 13:33N 39°10' E 009°07'10 9.9
2017-Feb-11 12:33N 39°05' E 009°17'1010.4
2017-Feb-11 11:33N 38°60' E 009°29'13810.6
2017-Feb-10 22:33N 38°06' E 012°11'1010.1
2017-Feb-10 21:33N 38°04' E 012°24'7 6.5
2017-Feb-10 20:33N 38°01' E 012°31'0 0.0
2017-Feb-10 19:33N 38°01' E 012°31'0 0.0
2017-Feb-10 18:33N 38°01' E 012°31'0 0.0
2017-Feb-10 17:30N 38°01' E 012°31'0 0.0
2017-Feb-10 16:33N 38°01' E 012°31'0 0.5
2017-Feb-10 15:33N 38°01' E 012°31'8 8.5
2017-Feb-10 14:33N 38°04' E 012°20'  
Track history (hours):
 
Tides and Currents Weather Stations Pressure Air Temp Water Temp Dewpoint Dewpoint Depression Visibility Wind Speed Wind Dir Waves Ship Positions

Heinz Schepers

Last reported at 2017-Feb-12 16:33 UTC. Time now 2017-Feb-19 16:56 UTC.
Position N 38°50' E 009°20'.

Length 101 m; draft 6.8 m.

Type: Cargo ship. MMSI: 304596000.

Date/timePositionNaut miles runAvg speedWind from/ knotsBaromVisibWave heightAir tempDewpointWater temp
2017-Feb-12 16:33N 38°50' E 009°20'9 8.9
2017-Feb-12 15:33N 38°57' E 009°14'9 8.9
2017-Feb-12 14:33N 39°05' E 009°09'8 8.4
2017-Feb-12 13:33N 39°13' E 009°04'1 0.5
2017-Feb-12 12:31N 39°13' E 009°04'0 0.0
2017-Feb-12 11:31N 39°13' E 009°04'0 0.0
2017-Feb-12 10:28N 39°13' E 009°04'0 0.0
2017-Feb-12 09:31N 39°13' E 009°04'0 0.0
2017-Feb-12 08:31N 39°13' E 009°04'0 0.0
2017-Feb-12 07:31N 39°13' E 009°04'0 0.0
2017-Feb-12 06:31N 39°13' E 009°04'0 0.0
2017-Feb-12 05:31N 39°13' E 009°04'0 0.0
2017-Feb-12 04:31N 39°13' E 009°04'0 0.0
2017-Feb-12 03:31N 39°13' E 009°04'0 0.0
2017-Feb-12 02:31N 39°13' E 009°04'0 0.0
2017-Feb-12 01:31N 39°13' E 009°04'0 0.0
2017-Feb-12 00:31N 39°13' E 009°04'0 0.0
2017-Feb-11 23:31N 39°13' E 009°04'0 0.0
2017-Feb-11 22:31N 39°13' E 009°04'0 0.0
2017-Feb-11 21:31N 39°13' E 009°04'0 0.0
2017-Feb-11 20:31N 39°13' E 009°04'0 0.0
2017-Feb-11 19:31N 39°13' E 009°04'0 0.0
2017-Feb-11 18:31N 39°13' E 009°04'0 0.0
2017-Feb-11 17:31N 39°13' E 009°04'0 0.0
2017-Feb-11 16:31N 39°13' E 009°04'0 0.0
2017-Feb-11 15:31N 39°13' E 009°04'0 0.0
2017-Feb-11 14:31N 39°13' E 009°04'4 3.7
2017-Feb-11 13:33N 39°10' E 009°07'10 9.9
2017-Feb-11 12:33N 39°05' E 009°17'1010.4
2017-Feb-11 11:33N 38°60' E 009°29'13810.6
2017-Feb-10 22:33N 38°06' E 012°11'1010.1
2017-Feb-10 21:33N 38°04' E 012°24'7 6.5
2017-Feb-10 20:33N 38°01' E 012°31'0 0.0
2017-Feb-10 19:33N 38°01' E 012°31'0 0.0
2017-Feb-10 18:33N 38°01' E 012°31'0 0.0
2017-Feb-10 17:30N 38°01' E 012°31'0 0.0
2017-Feb-10 16:33N 38°01' E 012°31'0 0.5
2017-Feb-10 15:33N 38°01' E 012°31'8 8.5
2017-Feb-10 14:33N 38°04' E 012°20'  

Dump ship's entire track history